Latest Weather Observations for Ballina

IDN60801

Issued at 7:09 pm EDT Friday 27 March 2015 (issued every 30 minutes, with the page automatically refreshed every 10 minutes)

About weather observations | Map of weather stations | Latest weather observations for NSW | Other Formats
Station Details ID: 058198 Name: BALLINA AIRPORT AWS Lat: -28.84 Lon: 153.56 Height: 1.3 m
Data from the previous 72 hours. | See also: Recent months at Ballina
Date/Time
EDT
Temp
°C
App
Temp
°C
Dew
Point
Rel
Hum
%
Delta-T
°C
Wind Press
QNH
hPa
Press
MSL
hPa
Rain
since 9 am
mm
Dir
 
Spd
km/h
Gust
km/h
Spd
kts
Gust
kts
27/07:00pm 23.9 25.2 19.2 75 3.0 SSE 11 19 6 10 1018.2 1018.2 0.0
27/06:30pm 24.2 25.6 19.5 75 3.0 SSE 11 19 6 10 1018.0 1018.0 0.0
27/06:00pm 24.6 24.3 19.2 72 3.4 SSE 19 24 10 13 1017.8 1017.8 0.0
27/05:30pm 25.2 25.0 19.8 72 3.5 S 20 32 11 17 1017.6 1017.6 0.0
27/05:00pm 25.6 25.3 19.5 69 3.9 SSE 20 28 11 15 1017.4 1017.4 0.0
27/04:30pm 25.5 24.4 19.4 69 3.9 SSE 24 33 13 18 1017.4 1017.4 0.0
27/04:00pm 24.9 23.1 18.8 69 3.9 S 26 35 14 19 1017.4 1017.4 0.0
27/03:30pm 25.3 23.9 19.7 71 3.6 S 26 37 14 20 1017.5 1017.5 0.0
27/03:00pm 25.2 24.2 19.6 71 3.6 S 24 32 13 17 1017.8 1017.8 0.0
27/02:30pm 24.9 23.9 18.8 69 3.9 S 22 32 12 17 1018.1 1018.1 0.0
27/02:00pm 25.9 24.9 18.8 65 4.5 S 22 33 12 18 1018.4 1018.4 0.0
27/01:30pm 24.9 23.2 19.0 69 3.8 S 26 37 14 20 1018.5 1018.5 0.0
27/01:00pm 26.5 25.7 20.8 71 3.7 S 26 37 14 20 1018.8 1018.8 0.0
27/12:30pm 25.2 23.4 19.6 71 3.6 S 28 39 15 21 1019.2 1019.2 0.0
27/12:00pm 25.7 23.9 19.6 69 3.9 S 28 41 15 22 1019.6 1019.6 0.0
27/11:30am 25.5 23.6 19.4 69 3.9 S 28 39 15 21 1019.5 1019.5 0.0
27/11:00am 25.8 24.5 19.9 70 3.8 SSW 26 37 14 20 1019.6 1019.6 0.0
27/10:30am 25.5 25.9 21.0 76 3.0 SSW 20 32 11 17 1019.5 1019.5 0.0
27/10:00am 25.1 25.3 20.6 76 2.9 SSW 20 35 11 19 1019.2 1019.2 0.0
27/09:30am 24.4 25.2 19.9 76 2.9 SW 15 19 8 10 1019.1 1019.1 0.0
27/09:00am 23.1 23.5 19.1 78 2.5 SW 15 20 8 11 1019.1 1019.1 5.0
27/08:30am 22.8 24.7 21.4 92 0.9 SW 13 19 7 10 1018.7 1018.7 5.0
27/08:11am 22.9 25.4 22.4 97 0.3 WSW 13 17 7 9 1018.4 1018.4 5.0
27/08:00am 22.7 25.6 22.4 98 0.2 WSW 11 15 6 8 1018.2 1018.2 5.0
27/07:30am 21.8 24.6 21.5 98 0.2 WNW 9 13 5 7 1017.7 1017.7 5.0
27/07:06am 21.5 24.7 21.2 98 0.2 W 6 9 3 5 1017.4 1017.4 5.0
27/07:00am 21.4 24.3 21.1 98 0.2 W 7 9 4 5 1017.3 1017.3 5.0
27/06:30am 21.5 24.7 21.3 99 0.1 WSW 6 9 3 5 1017.1 1017.1 5.0
27/06:00am 21.6 24.9 21.4 99 0.1 SW 6 7 3 4 1016.7 1016.7 5.0
27/05:30am 21.9 24.5 21.9 100 0.0 SSW 11 17 6 9 1016.2 1016.2 5.0
27/05:03am 21.0 24.0 20.8 99 0.1 SW 6 7 3 4 1015.7 1015.7 5.0
27/05:00am 21.1 24.1 20.9 99 0.1 SW 6 7 3 4 1015.7 1015.7 5.0
27/04:30am 21.2 25.4 21.0 99 0.1 CALM 0 0 0 0 1015.4 1015.4 5.0
27/04:00am 21.4 25.7 21.1 98 0.2 CALM 0 0 0 0 1015.5 1015.5 5.0
27/03:52am 21.4 25.7 21.1 98 0.2 CALM 0 0 0 0 1015.5 1015.5 5.0
27/03:51am 21.3 25.5 21.0 98 0.2 CALM 0 0 0 0 1015.5 1015.5 5.0
27/03:30am 21.5 25.7 21.0 97 0.3 CALM 0 0 0 0 1015.5 1015.5 5.0
27/03:00am 22.0 26.6 21.7 98 0.2 CALM 0 0 0 0 1015.6 1015.6 5.0
27/02:53am 22.0 26.6 21.7 98 0.2 CALM 0 0 0 0 1015.6 1015.6 5.0
27/02:33am 21.9 25.2 21.4 97 0.3 W 6 7 3 4 1015.9 1015.9 5.0
27/02:30am 22.0 25.7 21.5 97 0.3 WSW 4 7 2 4 1015.9 1015.9 5.0
27/02:00am 22.0 26.4 21.3 96 0.5 CALM 0 0 0 0 1016.1 1016.1 5.0
27/01:45am 22.5 27.1 21.8 96 0.5 CALM 0 0 0 0 1016.2 1016.2 5.0
27/01:34am 22.5 27.1 21.8 96 0.5 CALM 0 0 0 0 1016.3 1016.3 5.0
27/01:30am 22.5 27.1 21.8 96 0.5 CALM 0 0 0 0 1016.3 1016.3 5.0
27/01:22am 22.6 27.2 21.8 95 0.5 CALM 0 0 0 0 1016.3 1016.3 5.0
27/01:00am 22.9 27.7 22.1 95 0.5 CALM 0 7 0 4 1016.3 1016.3 5.0
27/12:30am 23.2 28.0 22.2 94 0.7 CALM 0 0 0 0 1016.3 1016.3 5.0
27/12:00am 23.4 28.2 22.2 93 0.8 CALM 0 6 0 3 1016.4 1016.4 5.0
 
Date/Time
EDT
Temp
°C
App
Temp
°C
Dew
Point
Rel
Hum
%
Delta-T
°C
Wind Press
QNH
hPa
Press
MSL
hPa
Rain
since 9 am
mm
Dir
 
Spd
km/h
Gust
km/h
Spd
kts
Gust
kts
26/11:30pm 23.5 27.2 22.5 94 0.7 N 7 11 4 6 1016.2 1016.2 5.0
26/11:00pm 23.3 26.5 22.3 94 0.7 N 9 13 5 7 1016.3 1016.3 5.0
26/10:30pm 23.0 26.3 21.8 93 0.8 NNW 7 11 4 6 1016.4 1016.4 5.0
26/10:00pm 22.5 24.9 21.5 94 0.7 N 11 13 6 7 1016.6 1016.6 5.0
26/09:30pm 22.8 26.3 21.1 90 1.1 NW 4 7 2 4 1016.4 1016.4 5.0
26/09:00pm 23.0 25.2 20.5 86 1.6 N 9 13 5 7 1016.7 1016.7 5.0
26/08:30pm 22.2 22.5 20.5 90 1.1 NNE 19 22 10 12 1016.7 1016.7 5.0
26/08:21pm 22.4 24.4 20.7 90 1.1 NNE 11 19 6 10 1016.3 1016.3 5.0
26/08:00pm 23.0 24.2 20.7 87 1.5 WNW 15 26 8 14 1017.5 1017.5 3.8
26/07:41pm 23.6 24.3 20.5 83 2.0 NW 17 26 9 14 1017.0 1017.0 1.6
26/07:30pm 24.4 22.0 19.9 76 2.9 W 32 54 17 29 1016.7 1016.7 0.0
26/07:23pm 25.2 23.6 20.0 73 3.4 WNW 28 54 15 29 1016.7 1016.7 0.0
26/07:00pm 25.8 27.2 21.9 79 2.6 NNE 17 22 9 12 1015.3 1015.3 0.0
26/06:30pm 26.1 27.4 21.7 77 2.9 NNE 17 26 9 14 1014.4 1014.4 0.0
26/06:00pm 26.3 27.6 21.7 76 3.1 NNE 17 24 9 13 1014.5 1014.5 0.0
26/05:30pm 26.9 28.6 22.3 76 3.1 NNE 17 26 9 14 1013.9 1013.9 0.0
26/05:00pm 28.2 28.7 22.7 72 3.7 NNE 24 33 13 18 1014.0 1014.0 0.0
26/04:30pm 28.6 29.2 22.8 71 3.9 NNE 24 33 13 18 1014.2 1014.2 0.0
26/04:00pm 29.3 30.6 23.3 70 4.1 NNE 22 32 12 17 1014.4 1014.4 0.0
26/03:30pm 29.4 31.1 24.0 72 3.7 NE 22 28 12 15 1014.6 1014.6 0.0
26/03:00pm 28.7 30.0 24.0 76 3.2 ENE 24 28 13 15 1015.1 1015.1 0.0
26/02:30pm 28.1 29.7 23.2 74 3.3 NE 20 26 11 14 1015.6 1015.6 0.0
26/02:00pm 28.6 31.2 23.9 75 3.2 NE 17 22 9 12 1016.1 1016.1 0.0
26/01:30pm 28.2 30.7 23.8 77 3.0 NE 17 22 9 12 1016.7 1016.7 0.0
26/01:00pm 27.7 29.7 22.9 75 3.3 NNE 17 20 9 11 1017.1 1017.1 0.0
26/12:30pm 27.4 29.3 22.8 76 3.1 NE 17 22 9 12 1017.5 1017.5 0.0
26/12:07pm 27.5 30.4 22.4 73 3.4 NE 11 20 6 11 1017.6 1017.6 0.0
26/12:00pm 28.2 31.4 23.1 74 3.5 NE 11 22 6 12 1017.8 1017.8 0.0
26/11:50am 27.2 30.8 22.4 75 3.2 NNE 7 13 4 7 1017.9 1017.9 0.0
26/11:30am 27.1 31.2 22.9 78 2.9 NNE 6 13 3 7 1018.2 1018.2 0.0
26/11:00am 25.2 28.7 21.9 82 2.2 W 6 11 3 6 1018.3 1018.3 0.0
26/10:30am 25.0 28.5 22.1 84 1.9 W 7 11 4 6 1018.5 1018.5 0.0
26/10:00am 24.5 27.5 22.0 86 1.7 NW 9 15 5 8 1018.2 1018.2 0.0
26/09:45am 24.2 27.0 21.5 85 1.8 WNW 9 13 5 7 1018.1 1018.1 0.0
26/09:30am 24.2 26.8 21.9 87 1.5 WNW 11 15 6 8 1018.2 1018.2 0.0
26/09:00am 23.5 25.4 21.4 88 1.4 W 13 19 7 10 1018.0 1018.0 0.0
26/08:30am 23.1 25.4 21.4 90 1.1 W 11 15 6 8 1017.8 1017.8 0.0
26/08:00am 22.4 24.1 21.0 92 0.9 W 13 15 7 8 1017.7 1017.7 0.0
26/07:30am 22.2 24.3 21.0 93 0.8 WSW 11 15 6 8 1017.2 1017.2 0.0
26/07:00am 22.1 24.8 21.3 95 0.5 WNW 9 13 5 7 1017.1 1017.1 0.0
26/06:30am 22.1 25.1 21.3 95 0.5 W 7 9 4 5 1016.7 1016.7 0.0
26/06:00am 22.2 24.5 21.4 95 0.5 W 11 13 6 7 1016.6 1016.6 0.0
26/05:30am 22.1 24.8 21.4 96 0.5 W 9 13 5 7 1016.6 1016.6 0.0
26/05:10am 22.1 24.0 21.3 95 0.5 W 13 15 7 8 1016.3 1016.3 0.0
26/05:00am 22.3 24.7 21.5 95 0.5 W 11 15 6 8 1016.2 1016.2 0.0
26/04:51am 22.7 25.3 21.9 95 0.5 WSW 11 13 6 7 1016.2 1016.2 0.0
26/04:30am 22.7 26.2 21.9 95 0.5 W 6 9 3 5 1016.1 1016.1 0.0
26/04:29am 22.7 26.2 21.9 95 0.5 W 6 7 3 4 1016.1 1016.1 0.0
26/04:22am 22.7 26.2 21.9 95 0.5 WSW 6 7 3 4 1016.0 1016.0 0.0
26/04:08am 22.7 25.7 21.9 95 0.5 W 9 13 5 7 1016.0 1016.0 0.0
26/04:00am 22.8 25.4 22.0 95 0.5 WSW 11 13 6 7 1016.1 1016.1 0.0
26/03:44am 22.9 25.6 22.1 95 0.5 WSW 11 15 6 8 1016.1 1016.1 0.0
26/03:30am 23.0 25.6 22.0 94 0.7 WSW 11 15 6 8 1016.1 1016.1 0.0
26/03:00am 23.4 26.0 22.6 95 0.5 WSW 13 17 7 9 1016.0 1016.0 0.0
26/02:30am 23.7 26.2 22.5 93 0.8 WSW 13 15 7 8 1016.3 1016.3 0.0
26/02:00am 24.3 28.2 22.6 90 1.1 WNW 6 11 3 6 1016.4 1016.4 0.0
26/01:30am 25.0 28.7 22.5 86 1.7 ESE 7 13 4 7 1016.6 1016.6 0.0
26/01:00am 24.9 28.1 22.4 86 1.7 ESE 9 13 5 7 1016.6 1016.6 0.0
26/12:30am 24.9 27.8 22.4 86 1.7 ESE 11 17 6 9 1016.8 1016.8 0.0
26/12:00am 25.2 28.6 22.7 86 1.7 ESE 9 13 5 7 1017.0 1017.0 0.0
 
Date/Time
EDT
Temp
°C
App
Temp
°C
Dew
Point
Rel
Hum
%
Delta-T
°C
Wind Press
QNH
hPa
Press
MSL
hPa
Rain
since 9 am
mm
Dir
 
Spd
km/h
Gust
km/h
Spd
kts
Gust
kts
25/11:30pm 24.9 28.1 22.4 86 1.7 ESE 9 13 5 7 1017.1 1017.1 0.0
25/11:00pm 25.2 28.5 22.5 85 1.8 ESE 9 13 5 7 1017.1 1017.1 0.0
25/10:30pm 25.1 28.4 22.6 86 1.7 ESE 9 11 5 6 1017.3 1017.3 0.0
25/10:00pm 25.1 27.6 22.4 85 1.8 ESE 13 17 7 9 1016.9 1016.9 0.0
25/09:30pm 25.1 27.6 22.4 85 1.8 ESE 13 20 7 11 1016.9 1016.9 0.0
25/09:00pm 25.2 27.3 22.5 85 1.8 ESE 15 19 8 10 1016.6 1016.6 0.0
25/08:30pm 25.1 27.1 22.2 84 1.9 ESE 15 24 8 13 1016.2 1016.2 0.0
25/08:00pm 25.5 27.2 22.4 83 2.1 ESE 17 26 9 14 1015.8 1015.8 0.0
25/07:30pm 25.4 27.0 22.1 82 2.2 ESE 17 28 9 15 1015.4 1015.4 0.0
25/07:02pm 25.5 26.7 22.2 82 2.2 ESE 19 28 10 15 1015.1 1015.1 0.0
25/07:00pm 25.6 26.9 22.3 82 2.2 ESE 19 30 10 16 1015.1 1015.1 0.0
25/06:30pm 25.8 27.0 22.5 82 2.2 ESE 20 28 11 15 1014.8 1014.8 0.0
25/06:26pm 25.8 27.6 22.5 82 2.2 SE 17 28 9 15 1014.8 1014.8 0.0
25/06:00pm 26.0 26.9 22.7 82 2.2 SE 22 30 12 16 1014.6 1014.6 0.0
25/05:30pm 26.4 27.8 22.9 81 2.4 SE 20 30 11 16 1014.2 1014.2 0.0
25/05:25pm 26.3 27.6 22.6 80 2.5 SE 20 30 11 16 1014.2 1014.2 0.0
25/05:00pm 26.4 27.8 22.9 81 2.4 SE 20 28 11 15 1013.9 1013.9 0.0
25/04:56pm 26.3 27.8 23.0 82 2.2 SE 20 28 11 15 1014.0 1014.0 0.0
25/04:30pm 26.4 28.0 22.9 81 2.4 SSE 19 24 10 13 1014.0 1014.0 0.0
25/04:00pm 26.4 27.8 22.5 79 2.6 SE 19 24 10 13 1013.8 1013.8 0.0
25/03:30pm 26.8 27.2 22.4 77 3.0 SSE 24 32 13 17 1013.8 1013.8 0.0
25/03:00pm 27.1 27.8 22.9 78 2.9 SSE 24 30 13 16 1013.7 1013.7 0.0
25/02:30pm 28.3 29.5 23.2 74 3.5 SE 22 32 12 17 1013.9 1013.9 0.0
25/02:00pm 28.4 29.7 23.3 74 3.5 SSE 22 32 12 17 1013.9 1013.9 0.0
25/01:30pm 27.6 28.3 22.3 73 3.6 SSE 22 30 12 16 1014.2 1014.2 0.0
25/01:00pm 27.7 28.7 21.7 70 4.0 SSE 19 24 10 13 1014.5 1014.5 0.0
25/12:30pm 28.2 29.3 21.2 65 4.7 SE 17 22 9 12 1014.7 1014.7 0.0
25/12:00pm 28.3 28.8 21.1 65 4.8 S 20 30 11 16 1014.7 1014.7 0.0
25/11:30am 28.9 31.2 21.4 64 5.0 ESE 11 17 6 9 1014.5 1014.5 0.0
25/11:00am 28.8 31.1 21.3 64 5.0 NE 11 17 6 9 1014.5 1014.5 0.0
25/10:30am 29.0 32.4 22.0 66 4.7 E 7 13 4 7 1014.7 1014.7 0.0
25/10:00am 28.2 31.0 20.5 63 5.1 ENE 6 9 3 5 1014.7 1014.7 0.0
25/09:30am 27.5 30.7 21.3 69 4.1 NNE 6 9 3 5 1014.3 1014.3 0.0
25/09:00am 26.6 29.4 21.6 74 3.3 N 9 15 5 8 1014.1 1014.1 0.0
25/08:30am 24.8 28.0 21.3 81 2.3 N 6 7 3 4 1013.9 1013.9 0.0
25/08:00am 23.2 25.6 20.9 87 1.5 N 9 11 5 6 1013.4 1013.4 0.0
25/07:30am 23.2 24.9 20.9 87 1.5 N 13 13 7 7 1012.9 1012.9 0.0
25/07:00am 23.2 25.5 20.7 86 1.6 N 9 15 5 8 1012.6 1012.6 0.0
25/06:30am 23.5 25.8 20.6 84 1.9 N 9 11 5 6 1012.4 1012.4 0.0
25/06:00am 24.0 26.3 20.7 82 2.2 N 9 11 5 6 1012.1 1012.1 0.0
25/05:30am 24.0 26.0 20.7 82 2.2 N 11 15 6 8 1011.6 1011.6 0.0
25/05:00am 23.9 25.4 20.6 82 2.2 N 13 22 7 12 1011.2 1011.2 0.0
25/04:30am 23.8 24.9 20.5 82 2.1 NNE 15 19 8 10 1011.1 1011.1 0.0
25/04:00am 23.9 25.2 20.8 83 2.0 N 15 20 8 11 1011.2 1011.2 0.0
25/03:30am 23.8 24.9 20.5 82 2.1 N 15 24 8 13 1011.3 1011.3 0.0
25/03:00am 23.8 25.2 20.3 81 2.3 N 13 20 7 11 1011.4 1011.4 0.0
25/02:30am 23.8 24.4 20.3 81 2.3 N 17 24 9 13 1011.9 1011.9 0.0
25/02:00am 23.8 24.7 20.1 80 2.4 NNE 15 22 8 12 1012.2 1012.2 0.0
25/01:30am 23.9 23.9 20.2 80 2.4 N 20 26 11 14 1012.6 1012.6 0.0
25/01:00am 23.8 24.0 20.1 80 2.4 N 19 32 10 17 1012.3 1012.3 0.0
25/12:30am 23.7 23.6 20.0 80 2.4 NNE 20 28 11 15 1012.0 1012.0 0.0
25/12:00am 23.8 23.8 20.1 80 2.4 N 20 30 11 16 1012.9 1012.9 0.0
 
Date/Time
EDT
Temp
°C
App
Temp
°C
Dew
Point
Rel
Hum
%
Delta-T
°C
Wind Press
QNH
hPa
Press
MSL
hPa
Rain
since 9 am
mm
Dir
 
Spd
km/h
Gust
km/h
Spd
kts
Gust
kts
24/11:30pm 24.0 23.2 20.1 79 2.5 N 24 39 13 21 1013.0 1013.0 0.0
24/11:00pm 24.1 22.7 20.4 80 2.4 N 28 39 15 21 1012.9 1012.9 0.0
24/10:30pm 24.1 23.9 20.6 81 2.3 N 22 32 12 17 1013.0 1013.0 0.0
24/10:00pm 24.2 23.7 20.7 81 2.3 N 24 35 13 19 1013.0 1013.0 0.0
24/09:30pm 24.3 24.1 20.6 80 2.4 N 22 28 12 15 1013.5 1013.5 0.0
24/09:00pm 24.4 24.6 20.5 79 2.5 N 20 33 11 18 1013.3 1013.3 0.0
24/08:30pm 24.4 24.9 20.9 81 2.3 NNE 19 28 10 15 1013.0 1013.0 0.0
24/08:00pm 24.6 25.4 21.3 82 2.2 NNE 19 28 10 15 1012.8 1012.8 0.0
24/07:30pm 24.5 25.5 21.0 81 2.3 NNE 17 28 9 15 1012.4 1012.4 0.0

Other Formats:

Comma delimited format used in spreadsheet applications
http://www.bom.gov.au/fwo/IDN60801/IDN60801.94596.axf

JavaScript Object Notation format (JSON) in row-major order
http://www.bom.gov.au/fwo/IDN60801/IDN60801.94596.json